Time;durP1;ratioP1;P1;durP2;ratioP2;P2;SDS_P1;SDS_P2;PMS_P1;PMS_P2;Temp;Humidity;BMP_temperature;BMP_pressure;BME280_temperature;BME280_humidity;BME280_pressure;Samples;Min_cycle;Max_cycle;Signal;HPM_P1;HPM_P2
2022/06/04 00:01:44;;;;;;;20.85;19.67;;;;;;;;;;5034674;28;20049;-62
2022/06/04 00:04:13;;;;;;;21.77;20.55;;;;;;;;;;5032379;28;20095;-62
2022/06/04 00:06:40;;;;;;;22.60;21.30;;;;;;;;;;5035319;28;20033;-62
2022/06/04 00:09:06;;;;;;;22.48;21.27;;;;;;;;;;5034989;28;20061;-61
2022/06/04 00:16:59;;;;;;;19.92;18.83;;;;;;;;;;5033201;28;20064;-61
2022/06/04 00:19:25;;;;;;;18.20;17.20;;;;;;;;;;5038058;28;20459;-61
2022/06/04 00:21:51;;;;;;;19.90;18.80;;;;;;;;;;5035896;28;20131;-61
2022/06/04 00:24:17;;;;;;;19.98;18.88;;;;;;;;;;5034546;28;20451;-61
2022/06/04 00:26:42;;;;;;;19.77;18.67;;;;;;;;;;5032704;28;20025;-61
2022/06/04 00:29:09;;;;;;;17.33;16.27;;;;;;;;;;5030269;28;20425;-61
2022/06/04 00:31:36;;;;;;;20.80;19.60;;;;;;;;;;5035350;28;20030;-60
2022/06/04 00:34:03;;;;;;;19.50;18.40;;;;;;;;;;5039735;28;20029;-60
2022/06/04 00:36:31;;;;;;;18.48;17.42;;;;;;;;;;5037349;28;20104;-60
2022/06/04 00:38:56;;;;;;;20.95;19.75;;;;;;;;;;5035776;28;20025;-61
2022/06/04 00:41:36;;;;;;;22.17;20.83;;;;;;;;;;5036106;28;20034;-60
2022/06/04 00:44:30;;;;;;;21.02;19.83;;;;;;;;;;5036317;28;20039;-60
2022/06/04 00:47:02;;;;;;;20.80;19.60;;;;;;;;;;5033221;28;20052;-61
2022/06/04 00:49:27;;;;;;;18.38;17.33;;;;;;;;;;5035205;28;20083;-60
2022/06/04 00:51:53;;;;;;;21.17;20.00;;;;;;;;;;5032916;28;20428;-61
2022/06/04 00:54:20;;;;;;;18.55;17.48;;;;;;;;;;5035191;28;20037;-61
2022/06/04 00:56:45;;;;;;;18.23;17.13;;;;;;;;;;5034021;28;20039;-61
2022/06/04 00:59:11;;;;;;;18.95;17.85;;;;;;;;;;5032553;28;20032;-61
2022/06/04 01:01:55;;;;;;;22.23;21.02;;;;;;;;;;5033724;28;20029;-62
2022/06/04 01:07:42;;;;;;;16.30;15.38;;;;;;;;;;5019148;28;20522;-62
2022/06/04 01:10:39;;;;;;;19.85;18.65;;;;;;;;;;5036674;28;20044;-62
2022/06/04 01:13:19;;;;;;;18.17;17.08;;;;;;;;;;5032184;28;20091;-62
2022/06/04 01:16:12;;;;;;;17.63;16.63;;;;;;;;;;5032123;28;20021;-62
2022/06/04 01:19:15;;;;;;;18.83;17.73;;;;;;;;;;5034187;28;20029;-62
2022/06/04 01:21:54;;;;;;;14.98;14.07;;;;;;;;;;5032231;28;20057;-62
2022/06/04 01:24:28;;;;;;;16.42;15.48;;;;;;;;;;5028267;28;20044;-62
2022/06/04 01:27:14;;;;;;;17.08;15.98;;;;;;;;;;5034643;28;20029;-62
2022/06/04 01:29:49;;;;;;;16.80;15.77;;;;;;;;;;5033869;28;20131;-61
2022/06/04 01:32:34;;;;;;;15.63;14.57;;;;;;;;;;5032815;28;20615;-61
2022/06/04 01:35:23;;;;;;;16.23;15.23;;;;;;;;;;5033815;28;20391;-61
2022/06/04 01:38:24;;;;;;;15.43;14.52;;;;;;;;;;5029463;28;20036;-61
2022/06/04 01:41:03;;;;;;;16.48;15.50;;;;;;;;;;5009339;28;20045;-61
2022/06/04 01:43:33;;;;;;;17.25;16.25;;;;;;;;;;5035673;28;20037;-61
2022/06/04 01:46:17;;;;;;;15.98;15.07;;;;;;;;;;5029359;28;20111;-61
2022/06/04 01:48:45;;;;;;;15.50;14.60;;;;;;;;;;5032899;28;20363;-61
2022/06/04 01:51:16;;;;;;;16.15;15.25;;;;;;;;;;5031839;28;20034;-61
2022/06/04 01:53:44;;;;;;;14.75;13.85;;;;;;;;;;5035621;28;20035;-61
2022/06/04 01:56:16;;;;;;;17.17;15.73;;;;;;;;;;5019227;28;20033;-61
2022/06/04 01:58:49;;;;;;;16.35;15.35;;;;;;;;;;5028323;28;20045;-60
2022/06/04 02:01:19;;;;;;;12.10;11.20;;;;;;;;;;5028558;28;20247;-61
2022/06/04 02:03:47;;;;;;;12.38;11.57;;;;;;;;;;5039293;28;20029;-60
2022/06/04 02:06:18;;;;;;;11.20;10.50;;;;;;;;;;5038866;28;20079;-60
2022/06/04 02:08:49;;;;;;;12.73;11.82;;;;;;;;;;5036488;28;20040;-60
2022/06/04 02:11:18;;;;;;;11.98;11.18;;;;;;;;;;5038842;28;20984;-60
2022/06/04 02:13:46;;;;;;;11.65;10.85;;;;;;;;;;5038959;28;20556;-60
2022/06/04 02:16:21;;;;;;;13.93;13.05;;;;;;;;;;5038670;28;20139;-60
2022/06/04 02:18:47;;;;;;;11.00;10.23;;;;;;;;;;5035337;28;20521;-60
2022/06/04 02:21:15;;;;;;;12.45;11.70;;;;;;;;;;5033672;28;20068;-60
2022/06/04 02:23:41;;;;;;;13.75;12.85;;;;;;;;;;5034197;28;20164;-60
2022/06/04 02:26:07;;;;;;;12.68;11.85;;;;;;;;;;5040929;28;20112;-60
2022/06/04 02:28:32;;;;;;;11.15;10.45;;;;;;;;;;5040271;28;20164;-60
2022/06/04 02:31:08;;;;;;;11.50;10.80;;;;;;;;;;5041530;28;20116;-60
2022/06/04 02:33:41;;;;;;;11.20;10.40;;;;;;;;;;5036892;28;20103;-60
2022/06/04 02:36:24;;;;;;;11.88;11.13;;;;;;;;;;5036642;28;20032;-61
2022/06/04 02:39:04;;;;;;;11.85;11.05;;;;;;;;;;5032729;28;20029;-60
2022/06/04 02:41:38;;;;;;;11.80;11.07;;;;;;;;;;5043498;28;20028;-60
2022/06/04 02:44:18;;;;;;;12.13;11.13;;;;;;;;;;5039360;28;20119;-60
2022/06/04 02:46:50;;;;;;;10.48;9.77;;;;;;;;;;5038800;28;20034;-60
2022/06/04 02:49:28;;;;;;;10.32;9.63;;;;;;;;;;5036202;28;20087;-60
2022/06/04 02:51:56;;;;;;;11.95;11.25;;;;;;;;;;5036472;28;20592;-60
2022/06/04 02:54:27;;;;;;;13.07;12.25;;;;;;;;;;5034883;28;20467;-61
2022/06/04 02:56:52;;;;;;;;;;;;;;;;;;5038073;28;20021;-61
2022/06/04 02:59:20;;;;;;;11.73;11.00;;;;;;;;;;5033655;28;19986;-60
2022/06/04 03:01:50;;;;;;;13.45;12.65;;;;;;;;;;5039527;28;20021;-60
2022/06/04 03:04:16;;;;;;;13.40;12.48;;;;;;;;;;5040691;28;20030;-60
2022/06/04 03:06:41;;;;;;;13.25;12.45;;;;;;;;;;5037401;28;20177;-60
2022/06/04 03:09:13;;;;;;;14.40;13.52;;;;;;;;;;5038313;28;20103;-61
2022/06/04 03:11:48;;;;;;;11.68;10.93;;;;;;;;;;5037342;28;20025;-61
2022/06/04 03:14:16;;;;;;;11.52;10.73;;;;;;;;;;5030649;28;20026;-61
2022/06/04 03:16:43;;;;;;;11.43;10.63;;;;;;;;;;5035134;28;20025;-61
2022/06/04 03:19:09;;;;;;;13.40;12.48;;;;;;;;;;5019512;28;20101;-61
2022/06/04 03:21:36;;;;;;;13.00;12.18;;;;;;;;;;5035508;28;20084;-61
2022/06/04 03:24:05;;;;;;;14.27;13.38;;;;;;;;;;5037570;28;20026;-61
2022/06/04 03:26:30;;;;;;;15.02;14.05;;;;;;;;;;5034153;28;20036;-61
2022/06/04 03:28:56;;;;;;;11.98;11.25;;;;;;;;;;5030770;28;20040;-61
2022/06/04 03:31:22;;;;;;;11.98;11.18;;;;;;;;;;5035471;28;20030;-61
2022/06/04 03:33:47;;;;;;;11.70;10.98;;;;;;;;;;5034546;28;20406;-60
2022/06/04 03:36:13;;;;;;;11.50;10.80;;;;;;;;;;5035048;28;20037;-60
2022/06/04 03:38:38;;;;;;;11.02;10.32;;;;;;;;;;5034732;28;20449;-60
2022/06/04 03:41:04;;;;;;;10.73;10.02;;;;;;;;;;5035534;28;20048;-60
2022/06/04 03:43:30;;;;;;;11.48;10.65;;;;;;;;;;5035049;28;20071;-61
2022/06/04 03:45:55;;;;;;;9.93;9.23;;;;;;;;;;5034439;28;20049;-61
2022/06/04 03:48:21;;;;;;;9.85;9.15;;;;;;;;;;5033702;28;20044;-62
2022/06/04 03:50:46;;;;;;;11.20;10.50;;;;;;;;;;5032721;28;20041;-61
2022/06/04 03:53:11;;;;;;;11.02;10.27;;;;;;;;;;5029782;28;20409;-61
2022/06/04 03:55:37;;;;;;;17.20;16.23;;;;;;;;;;5028559;28;20025;-61
2022/06/04 03:58:02;;;;;;;11.38;10.50;;;;;;;;;;5026497;28;20032;-63
2022/06/04 04:00:37;;;;;;;14.75;13.85;;;;;;;;;;5027977;28;20440;-61
2022/06/04 04:03:06;;;;;;;12.77;11.98;;;;;;;;;;5028969;28;20550;-61
2022/06/04 04:05:38;;;;;;;13.52;12.73;;;;;;;;;;5029139;28;20041;-62
2022/06/04 04:08:06;;;;;;;14.63;13.73;;;;;;;;;;5027411;28;20041;-61
2022/06/04 04:10:32;;;;;;;12.40;11.60;;;;;;;;;;5028340;28;20033;-61
2022/06/04 04:12:58;;;;;;;13.07;12.27;;;;;;;;;;5025082;28;20087;-61
2022/06/04 04:15:24;;;;;;;8.23;7.63;;;;;;;;;;5031058;28;20024;-61
2022/06/04 04:17:50;;;;;;;8.00;7.50;;;;;;;;;;5025596;28;20037;-61
2022/06/04 04:20:22;;;;;;;8.07;7.53;;;;;;;;;;5029977;28;20033;-61
2022/06/04 04:22:48;;;;;;;8.32;7.80;;;;;;;;;;5029312;28;20122;-61
2022/06/04 04:25:16;;;;;;;7.65;7.15;;;;;;;;;;5029140;28;20041;-61
2022/06/04 04:27:42;;;;;;;8.60;8.00;;;;;;;;;;5028464;28;20034;-61
2022/06/04 04:30:11;;;;;;;9.45;8.75;;;;;;;;;;5028767;28;20171;-61
2022/06/04 04:32:36;;;;;;;8.63;8.02;;;;;;;;;;5028980;28;20052;-61
2022/06/04 04:35:05;;;;;;;8.32;7.78;;;;;;;;;;5029168;28;20477;-62
2022/06/04 04:37:30;;;;;;;9.85;9.02;;;;;;;;;;5026334;28;20034;-61
2022/06/04 04:39:55;;;;;;;9.98;9.38;;;;;;;;;;5027577;28;20040;-62
2022/06/04 04:42:22;;;;;;;11.13;10.32;;;;;;;;;;5029780;28;20033;-62
2022/06/04 04:44:48;;;;;;;13.65;12.82;;;;;;;;;;5028888;28;20033;-61
2022/06/04 04:47:13;;;;;;;14.43;13.55;;;;;;;;;;5023674;28;20758;-61
2022/06/04 04:49:38;;;;;;;15.35;14.45;;;;;;;;;;5030189;28;20036;-62
2022/06/04 04:52:04;;;;;;;17.35;16.35;;;;;;;;;;5025255;28;20044;-60
2022/06/04 04:54:30;;;;;;;18.40;17.20;;;;;;;;;;5031510;28;20185;-61
2022/06/04 04:56:55;;;;;;;18.85;17.77;;;;;;;;;;5031203;28;20039;-61
2022/06/04 04:59:20;;;;;;;21.60;20.40;;;;;;;;;;5030109;28;20041;-61
2022/06/04 05:01:46;;;;;;;24.67;23.30;;;;;;;;;;5026961;28;20033;-61
2022/06/04 05:04:11;;;;;;;25.48;24.10;;;;;;;;;;5028901;28;20036;-60
2022/06/04 05:06:37;;;;;;;34.28;32.40;;;;;;;;;;5025550;28;20459;-61
2022/06/04 05:09:03;;;;;;;30.85;29.23;;;;;;;;;;5029951;28;20052;-61
2022/06/04 05:11:32;;;;;;;30.58;28.92;;;;;;;;;;5027144;28;20029;-60
2022/06/04 05:13:59;;;;;;;29.48;27.88;;;;;;;;;;5031574;28;20638;-61
2022/06/04 05:16:27;;;;;;;28.45;26.95;;;;;;;;;;5025168;28;20132;-61
2022/06/04 05:18:53;;;;;;;32.42;30.73;;;;;;;;;;5024100;28;20047;-61
2022/06/04 05:21:27;;;;;;;29.17;27.63;;;;;;;;;;5028102;28;20021;-61
2022/06/04 05:23:56;;;;;;;41.42;39.08;;;;;;;;;;5027692;28;20029;-61
2022/06/04 05:26:23;;;;;;;34.47;32.65;;;;;;;;;;5027828;28;20052;-60
2022/06/04 05:28:50;;;;;;;45.47;43.13;;;;;;;;;;5026036;28;20119;-60
2022/06/04 05:31:16;;;;;;;40.65;38.55;;;;;;;;;;5028156;28;20041;-60
2022/06/04 05:33:41;;;;;;;55.63;52.80;;;;;;;;;;5029397;28;20043;-61
2022/06/04 05:36:06;;;;;;;53.95;51.15;;;;;;;;;;5021504;28;20040;-62
2022/06/04 05:38:34;;;;;;;68.55;65.10;;;;;;;;;;5023598;28;20037;-60
2022/06/04 05:41:06;;;;;;;46.38;43.95;;;;;;;;;;5026069;28;20522;-59
2022/06/04 05:43:33;;;;;;;62.30;59.05;;;;;;;;;;5029331;28;20052;-61
2022/06/04 05:46:08;;;;;;;88.97;84.53;;;;;;;;;;5025889;28;20171;-61
2022/06/04 05:48:37;;;;;;;54.47;51.58;;;;;;;;;;5027238;28;20029;-62
2022/06/04 05:51:03;;;;;;;77.47;73.60;;;;;;;;;;5025698;28;20041;-61
2022/06/04 05:53:28;;;;;;;53.75;50.97;;;;;;;;;;5029223;28;20052;-62
2022/06/04 05:55:54;;;;;;;42.22;40.05;;;;;;;;;;5025449;28;20064;-61
2022/06/04 05:58:19;;;;;;;32.78;31.05;;;;;;;;;;5024092;28;20064;-62
2022/06/04 06:00:45;;;;;;;36.80;34.90;;;;;;;;;;5030069;28;20120;-61
2022/06/04 06:03:11;;;;;;;25.98;24.48;;;;;;;;;;5030480;28;20094;-61
2022/06/04 06:05:45;;;;;;;31.92;30.02;;;;;;;;;;5026289;28;20596;-61
2022/06/04 06:08:12;;;;;;;31.00;29.30;;;;;;;;;;5025744;28;20029;-60
2022/06/04 06:10:46;;;;;;;25.67;24.27;;;;;;;;;;5025850;28;20099;-61
2022/06/04 06:13:12;;;;;;;26.48;25.08;;;;;;;;;;5026630;28;20037;-61
2022/06/04 06:15:38;;;;;;;35.40;33.58;;;;;;;;;;5028160;28;20112;-62
2022/06/04 06:18:05;;;;;;;35.25;33.38;;;;;;;;;;5028886;28;20466;-61
2022/06/04 06:20:31;;;;;;;31.38;29.70;;;;;;;;;;5024672;28;20038;-61
2022/06/04 06:22:57;;;;;;;39.15;37.15;;;;;;;;;;5022757;28;20030;-61
2022/06/04 06:25:22;;;;;;;33.25;31.45;;;;;;;;;;5023871;28;20181;-62
2022/06/04 06:27:48;;;;;;;32.38;30.67;;;;;;;;;;5029858;28;20033;-62
2022/06/04 06:30:14;;;;;;;34.20;32.33;;;;;;;;;;5022176;28;20103;-60
2022/06/04 06:32:40;;;;;;;29.90;28.30;;;;;;;;;;5028338;28;20030;-62
2022/06/04 06:35:07;;;;;;;32.08;30.38;;;;;;;;;;5026771;28;20493;-61
2022/06/04 06:37:32;;;;;;;21.98;20.77;;;;;;;;;;5023699;28;20022;-61
2022/06/04 06:39:58;;;;;;;34.03;32.20;;;;;;;;;;5023068;28;20417;-62
2022/06/04 06:42:23;;;;;;;28.25;26.65;;;;;;;;;;5022974;28;20043;-60
2022/06/04 06:44:48;;;;;;;26.80;25.33;;;;;;;;;;5021578;28;20044;-60
2022/06/04 06:47:15;;;;;;;19.92;18.83;;;;;;;;;;5024206;28;20042;-60
2022/06/04 06:49:41;;;;;;;30.80;29.08;;;;;;;;;;5026262;28;20067;-60
2022/06/04 06:52:06;;;;;;;23.05;21.80;;;;;;;;;;5029332;28;20049;-59
2022/06/04 06:54:35;;;;;;;28.40;26.90;;;;;;;;;;5029994;28;20033;-60
2022/06/04 06:57:01;;;;;;;23.42;22.13;;;;;;;;;;5033091;28;20021;-61
2022/06/04 06:59:28;;;;;;;23.38;22.15;;;;;;;;;;5027934;28;20044;-59
2022/06/04 07:01:55;;;;;;;19.85;18.75;;;;;;;;;;5014831;28;20040;-61
2022/06/04 07:04:25;;;;;;;21.73;20.52;;;;;;;;;;5029397;28;20192;-60
2022/06/04 07:06:53;;;;;;;21.83;20.63;;;;;;;;;;5027912;28;20541;-59
2022/06/04 07:09:31;;;;;;;24.15;22.85;;;;;;;;;;5031710;28;20091;-61
2022/06/04 07:11:57;;;;;;;22.75;21.52;;;;;;;;;;5028775;28;20129;-61
2022/06/04 07:14:23;;;;;;;29.33;27.77;;;;;;;;;;5030350;28;20105;-60
2022/06/04 07:16:49;;;;;;;25.58;24.20;;;;;;;;;;5037612;28;20048;-60
2022/06/04 07:19:16;;;;;;;28.05;26.55;;;;;;;;;;5035400;28;20044;-59
2022/06/04 07:21:42;;;;;;;27.63;26.17;;;;;;;;;;5035456;28;20089;-60
2022/06/04 07:24:08;;;;;;;29.35;27.80;;;;;;;;;;5033379;28;20036;-60
2022/06/04 07:26:34;;;;;;;27.02;25.42;;;;;;;;;;5036697;28;20056;-61
2022/06/04 07:29:00;;;;;;;37.45;35.53;;;;;;;;;;5034138;28;20046;-59
2022/06/04 07:31:25;;;;;;;38.95;36.95;;;;;;;;;;5028462;28;20036;-62
2022/06/04 07:33:53;;;;;;;37.65;35.65;;;;;;;;;;5027653;28;20102;-61
2022/06/04 07:36:24;;;;;;;38.40;36.40;;;;;;;;;;5028887;28;20032;-59
2022/06/04 07:38:51;;;;;;;29.65;28.08;;;;;;;;;;5028142;28;20037;-61
2022/06/04 07:41:18;;;;;;;31.02;29.33;;;;;;;;;;5026277;28;20029;-60
2022/06/04 07:43:44;;;;;;;34.60;32.80;;;;;;;;;;5030025;28;20485;-61
2022/06/04 07:46:09;;;;;;;39.53;37.50;;;;;;;;;;5027089;28;20065;-61
2022/06/04 07:48:35;;;;;;;37.55;35.65;;;;;;;;;;5034326;28;20036;-63
2022/06/04 07:51:02;;;;;;;43.28;41.05;;;;;;;;;;5032363;28;20065;-62
2022/06/04 07:53:27;;;;;;;49.97;47.47;;;;;;;;;;5028358;28;20064;-61
2022/06/04 07:55:53;;;;;;;49.45;46.95;;;;;;;;;;5030733;28;20423;-61
2022/06/04 07:58:18;;;;;;;56.40;53.53;;;;;;;;;;5033520;28;20514;-62
2022/06/04 08:00:44;;;;;;;42.30;40.15;;;;;;;;;;5033158;28;20379;-61
2022/06/04 08:03:09;;;;;;;42.03;39.83;;;;;;;;;;5031173;28;20245;-62
2022/06/04 08:05:35;;;;;;;58.83;55.83;;;;;;;;;;5031599;28;20038;-63
2022/06/04 08:08:01;;;;;;;53.70;50.95;;;;;;;;;;5029554;28;20032;-60
2022/06/04 08:10:26;;;;;;;41.33;39.17;;;;;;;;;;5033535;28;20042;-61
2022/06/04 08:12:54;;;;;;;29.73;28.17;;;;;;;;;;5033489;28;20628;-60
2022/06/04 08:15:20;;;;;;;44.95;42.63;;;;;;;;;;5035375;28;20493;-60
2022/06/04 08:17:47;;;;;;;55.28;52.47;;;;;;;;;;5030991;28;20319;-62
2022/06/04 08:20:14;;;;;;;72.90;69.18;;;;;;;;;;5027069;28;20056;-63
2022/06/04 08:22:40;;;;;;;84.03;79.82;;;;;;;;;;5024759;28;20036;-61
2022/06/04 08:25:06;;;;;;;76.40;72.50;;;;;;;;;;5026724;28;20037;-59
2022/06/04 08:27:31;;;;;;;81.40;77.25;;;;;;;;;;5029452;28;20522;-61
2022/06/04 08:29:57;;;;;;;107.07;101.70;;;;;;;;;;5032851;28;20167;-62
2022/06/04 08:32:22;;;;;;;136.55;129.55;;;;;;;;;;5029217;28;20053;-62
2022/06/04 08:34:48;;;;;;;141.50;134.38;;;;;;;;;;5034490;28;20040;-59
2022/06/04 08:37:13;;;;;;;132.75;126.07;;;;;;;;;;5027198;28;20481;-62
2022/06/04 08:39:39;;;;;;;147.77;140.30;;;;;;;;;;5027596;28;20164;-60
2022/06/04 08:42:18;;;;;;;146.63;139.18;;;;;;;;;;5028262;28;20037;-62
2022/06/04 08:44:47;;;;;;;173.55;164.85;;;;;;;;;;5036482;28;20029;-64
2022/06/04 08:47:20;;;;;;;119.23;113.23;;;;;;;;;;5032757;28;20116;-63
2022/06/04 08:49:56;;;;;;;114.53;108.70;;;;;;;;;;5033205;28;20497;-64
2022/06/04 08:52:50;;;;;;;117.10;111.20;;;;;;;;;;5032707;28;20051;-63
2022/06/04 08:58:42;;;;;;;137.27;130.38;;;;;;;;;;5030918;28;20045;-64
2022/06/04 09:01:16;;;;;;;127.97;121.40;;;;;;;;;;5028492;28;20083;-65
2022/06/04 09:04:11;;;;;;;148.68;141.00;;;;;;;;;;5032889;28;20033;-63
2022/06/04 09:06:58;;;;;;;168.57;160.10;;;;;;;;;;5034743;28;20029;-64
2022/06/04 09:09:31;;;;;;;149.35;141.85;;;;;;;;;;5031563;28;20071;-65
2022/06/04 09:12:02;;;;;;;182.40;172.85;;;;;;;;;;5028024;28;20025;-63
2022/06/04 09:14:42;;;;;;;165.70;157.20;;;;;;;;;;5029142;28;20060;-63
2022/06/04 09:17:16;;;;;;;153.20;145.27;;;;;;;;;;5028913;28;20037;-64
2022/06/04 09:19:46;;;;;;;134.20;127.35;;;;;;;;;;5030332;28;20041;-63
2022/06/04 09:22:23;;;;;;;163.40;154.95;;;;;;;;;;5034297;28;20056;-64
2022/06/04 09:24:49;;;;;;;146.32;138.75;;;;;;;;;;5032817;28;20042;-63
2022/06/04 09:27:36;;;;;;;145.10;137.55;;;;;;;;;;5032414;28;21096;-63
2022/06/04 09:30:04;;;;;;;194.45;184.35;;;;;;;;;;5028329;28;20095;-64
2022/06/04 09:33:00;;;;;;;147.45;139.80;;;;;;;;;;5031917;28;20113;-63
2022/06/04 09:35:30;;;;;;;183.60;173.88;;;;;;;;;;5031971;28;20057;-63
2022/06/04 09:37:55;;;;;;;;;;;;;;;;;;5033031;28;20029;-63
2022/06/04 09:40:33;;;;;;;177.02;167.68;;;;;;;;;;5033153;28;19921;-63
2022/06/04 09:43:16;;;;;;;221.18;209.95;;;;;;;;;;5022978;28;20107;-63
2022/06/04 09:45:52;;;;;;;311.60;295.17;;;;;;;;;;5027702;28;20041;-64
2022/06/04 09:48:28;;;;;;;213.02;202.00;;;;;;;;;;5031499;28;20482;-64
2022/06/04 09:50:55;;;;;;;231.15;219.10;;;;;;;;;;5030474;28;20037;-64
2022/06/04 09:53:29;;;;;;;149.40;141.52;;;;;;;;;;5032947;28;20057;-63
2022/06/04 09:55:57;;;;;;;169.10;160.20;;;;;;;;;;5032182;28;20363;-64
2022/06/04 09:58:36;;;;;;;294.60;279.27;;;;;;;;;;5032464;28;20020;-64
2022/06/04 10:01:05;;;;;;;211.48;200.32;;;;;;;;;;5031828;28;20041;-63
2022/06/04 10:03:33;;;;;;;169.40;160.75;;;;;;;;;;5032240;28;20096;-59
2022/06/04 10:06:08;;;;;;;142.63;135.20;;;;;;;;;;5029049;28;20063;-59
2022/06/04 10:11:22;;;;;;;249.82;236.82;;;;;;;;;;5028402;28;20037;-61
2022/06/04 10:13:53;;;;;;;189.23;179.63;;;;;;;;;;5029734;28;20017;-60
2022/06/04 10:16:23;;;;;;;120.28;114.03;;;;;;;;;;5040667;28;20033;-61
2022/06/04 10:19:02;;;;;;;237.90;225.68;;;;;;;;;;5026634;28;20730;-61
2022/06/04 10:21:36;;;;;;;117.60;111.47;;;;;;;;;;5026557;28;21728;-60
2022/06/04 10:24:26;;;;;;;150.05;142.35;;;;;;;;;;5027480;28;20037;-60
2022/06/04 10:27:16;;;;;;;151.82;143.85;;;;;;;;;;5031474;28;20129;-60
2022/06/04 10:29:47;;;;;;;226.27;214.75;;;;;;;;;;5027667;28;20300;-60
2022/06/04 10:32:31;;;;;;;322.73;305.92;;;;;;;;;;5032025;28;20041;-61
2022/06/04 10:35:34;;;;;;;301.13;285.83;;;;;;;;;;5030182;28;20086;-60
2022/06/04 10:38:05;;;;;;;298.13;282.98;;;;;;;;;;5015215;28;20460;-60
2022/06/04 10:40:48;;;;;;;233.07;220.68;;;;;;;;;;5030983;28;20502;-60
2022/06/04 10:43:53;;;;;;;208.75;197.80;;;;;;;;;;5032727;28;20044;-60
2022/06/04 10:46:40;;;;;;;268.00;254.25;;;;;;;;;;5030979;28;20026;-60
2022/06/04 10:49:21;;;;;;;293.85;278.95;;;;;;;;;;5029638;28;20042;-60
2022/06/04 10:51:46;;;;;;;244.98;232.23;;;;;;;;;;5030185;28;20124;-60
2022/06/04 10:54:21;;;;;;;153.25;145.32;;;;;;;;;;5032106;28;20379;-60
2022/06/04 10:56:57;;;;;;;146.90;139.15;;;;;;;;;;5029466;28;20029;-59
2022/06/04 10:59:32;;;;;;;221.43;209.90;;;;;;;;;;5031369;28;20464;-59
2022/06/04 11:01:58;;;;;;;140.73;133.38;;;;;;;;;;5028443;28;20064;-60
2022/06/04 11:04:44;;;;;;;137.80;130.80;;;;;;;;;;5028256;28;20457;-59
2022/06/04 11:07:33;;;;;;;149.38;141.63;;;;;;;;;;5028969;28;20033;-60
2022/06/04 11:10:00;;;;;;;286.33;271.58;;;;;;;;;;5028414;28;20040;-61
2022/06/04 11:12:58;;;;;;;282.92;268.45;;;;;;;;;;5027929;28;20031;-59
2022/06/04 11:15:31;;;;;;;213.30;202.32;;;;;;;;;;5032288;28;20044;-60
2022/06/04 11:18:44;;;;;;;178.30;169.05;;;;;;;;;;5030545;28;20029;-60
2022/06/04 11:21:40;;;;;;;301.92;286.52;;;;;;;;;;5004979;28;20038;-60
2022/06/04 11:24:42;;;;;;;259.63;246.63;;;;;;;;;;5034557;28;20045;-61
2022/06/04 11:27:19;;;;;;;213.20;202.30;;;;;;;;;;5024102;28;20061;-61
2022/06/04 11:29:48;;;;;;;230.00;218.57;;;;;;;;;;5030953;28;20033;-59
2022/06/04 11:32:22;;;;;;;130.90;124.07;;;;;;;;;;5027697;28;20033;-60
2022/06/04 11:35:13;;;;;;;159.70;151.43;;;;;;;;;;5028242;28;20029;-62
2022/06/04 11:38:16;;;;;;;147.80;140.13;;;;;;;;;;5028244;28;20022;-60
2022/06/04 11:41:06;;;;;;;212.30;201.68;;;;;;;;;;5027163;28;20384;-60
2022/06/04 11:43:41;;;;;;;168.88;160.32;;;;;;;;;;5026854;28;20178;-60
2022/06/04 11:46:26;;;;;;;206.35;195.90;;;;;;;;;;5026127;28;20622;-60
2022/06/04 11:49:37;;;;;;;63.47;60.20;;;;;;;;;;5031451;28;20092;-61
2022/06/04 11:52:17;;;;;;;56.70;53.75;;;;;;;;;;5027181;28;20120;-62
2022/06/04 11:55:17;;;;;;;268.55;254.90;;;;;;;;;;5030252;28;20046;-60
2022/06/04 11:57:45;;;;;;;;;;;;;;;;;;5028147;28;20075;-61
2022/06/04 12:00:20;;;;;;;56.90;54.00;;;;;;;;;;5030150;28;20067;-62
2022/06/04 12:03:00;;;;;;;196.48;186.57;;;;;;;;;;5029411;28;20061;-60
2022/06/04 12:05:37;;;;;;;49.25;46.67;;;;;;;;;;5027717;28;20467;-62
2022/06/04 12:08:07;;;;;;;49.05;46.55;;;;;;;;;;5028878;28;20041;-61
2022/06/04 12:11:00;;;;;;;57.78;54.78;;;;;;;;;;5023248;28;20037;-63
2022/06/04 12:13:30;;;;;;;96.95;92.00;;;;;;;;;;5026056;28;20036;-61
2022/06/04 12:16:13;;;;;;;63.85;60.63;;;;;;;;;;5024117;28;20079;-61
2022/06/04 12:18:51;;;;;;;122.90;116.53;;;;;;;;;;5024578;28;20053;-61
2022/06/04 12:24:35;;;;;;;78.05;73.95;;;;;;;;;;5022657;28;20045;-61
2022/06/04 12:27:21;;;;;;;119.43;113.18;;;;;;;;;;5021713;28;20036;-61
2022/06/04 12:29:50;;;;;;;180.52;171.32;;;;;;;;;;5028035;28;20025;-60
2022/06/04 12:32:35;;;;;;;231.05;219.50;;;;;;;;;;5021845;28;20470;-60
2022/06/04 12:35:06;;;;;;;244.00;231.75;;;;;;;;;;5023408;28;20041;-60
2022/06/04 12:37:39;;;;;;;240.05;228.00;;;;;;;;;;5024363;28;20125;-60
2022/06/04 12:40:22;;;;;;;189.70;179.98;;;;;;;;;;5020845;28;20513;-60
2022/06/04 12:43:34;;;;;;;154.55;146.70;;;;;;;;;;5026812;28;20037;-60
2022/06/04 12:46:14;;;;;;;102.00;96.80;;;;;;;;;;5024479;28;20049;-61
2022/06/04 12:48:56;;;;;;;83.10;78.85;;;;;;;;;;5029568;28;20118;-61
2022/06/04 12:51:45;;;;;;;94.90;90.00;;;;;;;;;;5027746;28;20053;-60
2022/06/04 12:54:23;;;;;;;253.20;240.48;;;;;;;;;;5027526;28;20025;-59
2022/06/04 12:57:02;;;;;;;56.83;53.88;;;;;;;;;;5029896;28;20049;-60
2022/06/04 12:59:38;;;;;;;32.67;30.95;;;;;;;;;;5026089;28;20029;-60
2022/06/04 13:02:30;;;;;;;40.80;38.60;;;;;;;;;;5026734;28;20042;-61
2022/06/04 13:05:19;;;;;;;38.58;36.58;;;;;;;;;;5033334;28;20029;-61
2022/06/04 13:07:48;;;;;;;36.10;34.20;;;;;;;;;;5026174;28;20108;-62
2022/06/04 13:10:38;;;;;;;36.20;34.30;;;;;;;;;;5029560;28;20057;-62
2022/06/04 13:13:22;;;;;;;40.55;38.47;;;;;;;;;;5032041;28;20040;-61
2022/06/04 13:15:54;;;;;;;44.58;42.25;;;;;;;;;;5036264;28;20025;-61
2022/06/04 13:18:25;;;;;;;48.45;45.97;;;;;;;;;;5030408;28;20055;-61
2022/06/04 13:20:56;;;;;;;47.30;44.88;;;;;;;;;;5029212;28;20518;-62
2022/06/04 13:23:50;;;;;;;63.22;59.97;;;;;;;;;;5030988;28;20041;-62
2022/06/04 13:27:00;;;;;;;52.95;50.17;;;;;;;;;;5029588;28;20587;-64
2022/06/04 13:29:31;;;;;;;45.28;42.95;;;;;;;;;;4992515;28;20065;-62
2022/06/04 13:32:00;;;;;;;51.90;49.22;;;;;;;;;;4969493;28;20419;-62
2022/06/04 13:34:31;;;;;;;51.33;48.70;;;;;;;;;;5001339;28;20037;-62
2022/06/04 13:37:03;;;;;;;67.68;64.07;;;;;;;;;;5028851;28;20040;-63
2022/06/04 13:39:29;;;;;;;100.88;95.70;;;;;;;;;;5032905;28;20363;-63
2022/06/04 13:42:06;;;;;;;131.85;125.05;;;;;;;;;;5028390;28;20022;-62
2022/06/04 13:44:37;;;;;;;81.65;77.45;;;;;;;;;;5028878;28;20426;-62
2022/06/04 13:47:17;;;;;;;135.68;128.80;;;;;;;;;;5029791;28;20036;-62
2022/06/04 13:50:06;;;;;;;62.63;59.40;;;;;;;;;;5032219;28;20033;-65
2022/06/04 13:53:00;;;;;;;40.72;38.63;;;;;;;;;;5033098;28;20047;-64
2022/06/04 13:55:38;;;;;;;32.72;31.02;;;;;;;;;;5028040;28;20049;-64
2022/06/04 13:58:09;;;;;;;37.65;35.65;;;;;;;;;;5032347;28;20028;-63
2022/06/04 14:00:37;;;;;;;30.08;28.25;;;;;;;;;;5034262;28;20033;-63
2022/06/04 14:03:25;;;;;;;30.00;28.40;;;;;;;;;;5030014;28;20712;-64
2022/06/04 14:05:54;;;;;;;43.63;41.42;;;;;;;;;;5029901;28;20021;-65
2022/06/04 14:08:32;;;;;;;35.35;33.55;;;;;;;;;;5031729;28;20131;-64
2022/06/04 14:11:00;;;;;;;47.28;44.88;;;;;;;;;;5036105;28;20112;-63
2022/06/04 14:13:48;;;;;;;49.28;46.78;;;;;;;;;;5029649;28;20359;-64
2022/06/04 14:16:39;;;;;;;42.72;40.53;;;;;;;;;;5031338;28;20080;-63
2022/06/04 14:19:16;;;;;;;38.90;36.83;;;;;;;;;;5030949;28;20025;-64
2022/06/04 14:21:55;;;;;;;37.13;35.20;;;;;;;;;;5034158;28;20048;-63
2022/06/04 14:24:33;;;;;;;31.48;29.88;;;;;;;;;;5033479;28;20032;-63
2022/06/04 14:27:25;;;;;;;26.27;24.88;;;;;;;;;;5029392;28;20037;-65
2022/06/04 14:30:03;;;;;;;35.13;33.22;;;;;;;;;;5031291;28;20036;-62
2022/06/04 14:32:48;;;;;;;24.92;23.58;;;;;;;;;;5032623;28;20112;-65
2022/06/04 14:35:19;;;;;;;28.08;26.58;;;;;;;;;;5032598;28;20099;-63
2022/06/04 14:37:48;;;;;;;31.42;29.83;;;;;;;;;;5029283;28;20101;-62
2022/06/04 14:40:15;;;;;;;29.10;27.60;;;;;;;;;;5032088;28;20033;-63
2022/06/04 14:43:05;;;;;;;34.72;32.92;;;;;;;;;;5032593;28;20029;-64
2022/06/04 14:45:56;;;;;;;38.42;36.45;;;;;;;;;;5032023;28;20137;-63
2022/06/04 14:48:30;;;;;;;62.35;59.22;;;;;;;;;;5031192;28;20056;-62
2022/06/04 14:51:09;;;;;;;123.07;116.95;;;;;;;;;;5029925;28;20069;-62
2022/06/04 14:53:35;;;;;;;39.55;37.55;;;;;;;;;;5032906;28;20649;-63
2022/06/04 14:56:44;;;;;;;101.50;96.40;;;;;;;;;;5030520;28;20099;-63
2022/06/04 14:59:20;;;;;;;84.85;80.57;;;;;;;;;;5022331;28;20148;-63
2022/06/04 15:02:15;;;;;;;205.38;195.13;;;;;;;;;;5033297;28;20078;-63
2022/06/04 15:05:06;;;;;;;90.32;85.75;;;;;;;;;;5033016;28;20102;-63
2022/06/04 15:08:00;;;;;;;288.73;274.48;;;;;;;;;;5032659;28;20418;-64